MFX454 URSS-UZTT
Flight info
| Callsign | MFX454 |
|---|---|
| Flight time | N/A |
| Altitude | 35000 |
| Route | N0460F350 IRGID A944 BEMES R227 ITAKA N154 NOGBU N193 DIBAD |
| Aircraft | A20N/M-VGDW/C |
Departure
| Time | N/A |
|---|---|
| Airport | Sochi International Airport (URSS) |
Arrival
| Time | 2026-04-28 10:31 |
|---|---|
| Airport | Tashkent International Airport (UZTT) |
| Time | Latitude | Longitude | Altitude | Speed | Heading |
|---|---|---|---|---|---|
| 2026-04-28 10:02 | 41.53370 | 66.25899 | 34924 ft | 492 kts | 103° |
| 2026-04-28 10:03 | 41.52053 | 66.34956 | 34924 ft | 492 kts | 103° |
| 2026-04-28 10:03 | 41.50740 | 66.43945 | 34924 ft | 492 kts | 103° |
| 2026-04-28 10:04 | 41.49416 | 66.52966 | 34924 ft | 492 kts | 103° |
| 2026-04-28 10:04 | 41.48093 | 66.61910 | 34924 ft | 492 kts | 103° |
| 2026-04-28 10:05 | 41.46777 | 66.70928 | 34924 ft | 492 kts | 103° |
| 2026-04-28 10:05 | 41.45476 | 66.79884 | 34924 ft | 492 kts | 103° |
| 2026-04-28 10:06 | 41.44161 | 66.88872 | 34924 ft | 492 kts | 103° |
| 2026-04-28 10:06 | 41.42836 | 66.97869 | 34924 ft | 492 kts | 103° |
| 2026-04-28 10:07 | 41.41505 | 67.06831 | 34923 ft | 494 kts | 103° |
| 2026-04-28 10:07 | 41.40153 | 67.15884 | 34882 ft | 496 kts | 103° |
| 2026-04-28 10:08 | 41.38790 | 67.24979 | 34798 ft | 499 kts | 103° |
| 2026-04-28 10:08 | 41.37428 | 67.34032 | 34757 ft | 499 kts | 103° |
| 2026-04-28 10:09 | 41.36048 | 67.43146 | 34740 ft | 500 kts | 103° |
| 2026-04-28 10:09 | 41.34671 | 67.52185 | 34735 ft | 500 kts | 103° |
| 2026-04-28 10:10 | 41.33272 | 67.61319 | 34266 ft | 500 kts | 103° |
| 2026-04-28 10:10 | 41.32578 | 67.65834 | 33653 ft | 498 kts | 103° |
| 2026-04-28 10:10 | 41.31869 | 67.70450 | 32929 ft | 496 kts | 103° |
| 2026-04-28 10:11 | 41.31169 | 67.75000 | 32169 ft | 496 kts | 103° |
| 2026-04-28 10:11 | 41.30460 | 67.79581 | 31376 ft | 496 kts | 103° |
| 2026-04-28 10:11 | 41.29749 | 67.84144 | 30568 ft | 496 kts | 103° |
| 2026-04-28 10:11 | 41.29068 | 67.88689 | 29741 ft | 497 kts | 102° |
| 2026-04-28 10:12 | 41.28556 | 67.93217 | 28905 ft | 498 kts | 98° |
| 2026-04-28 10:12 | 41.28238 | 67.97852 | 28040 ft | 500 kts | 95° |
| 2026-04-28 10:12 | 41.28108 | 68.02425 | 27169 ft | 500 kts | 92° |
| 2026-04-28 10:12 | 41.28029 | 68.07089 | 26244 ft | 501 kts | 92° |
| 2026-04-28 10:13 | 41.27959 | 68.11723 | 25292 ft | 502 kts | 92° |
| 2026-04-28 10:13 | 41.27886 | 68.16357 | 24306 ft | 503 kts | 92° |
| 2026-04-28 10:13 | 41.27807 | 68.21049 | 23273 ft | 505 kts | 92° |
| 2026-04-28 10:13 | 41.27724 | 68.25703 | 22343 ft | 502 kts | 92° |
| 2026-04-28 10:14 | 41.27638 | 68.30304 | 21765 ft | 496 kts | 92° |
| 2026-04-28 10:14 | 41.27551 | 68.34850 | 21147 ft | 491 kts | 92° |
| 2026-04-28 10:14 | 41.27462 | 68.39370 | 20501 ft | 486 kts | 92° |
| 2026-04-28 10:14 | 41.27371 | 68.43880 | 19841 ft | 480 kts | 92° |
| 2026-04-28 10:15 | 41.27281 | 68.48259 | 19194 ft | 474 kts | 92° |
| 2026-04-28 10:15 | 41.27189 | 68.52677 | 18532 ft | 469 kts | 92° |
| 2026-04-28 10:15 | 41.27098 | 68.56948 | 17887 ft | 463 kts | 92° |
| 2026-04-28 10:15 | 41.27005 | 68.61254 | 17232 ft | 458 kts | 92° |
| 2026-04-28 10:16 | 41.26912 | 68.65484 | 16580 ft | 453 kts | 93° |
| 2026-04-28 10:16 | 41.26821 | 68.69611 | 16089 ft | 443 kts | 93° |
| 2026-04-28 10:16 | 41.26730 | 68.73667 | 15802 ft | 427 kts | 93° |
| 2026-04-28 10:16 | 41.26643 | 68.77518 | 15517 ft | 414 kts | 93° |
| 2026-04-28 10:17 | 41.26556 | 68.81296 | 15273 ft | 400 kts | 93° |
| 2026-04-28 10:17 | 41.26469 | 68.84950 | 15066 ft | 387 kts | 93° |
| 2026-04-28 10:17 | 41.26384 | 68.88498 | 14892 ft | 373 kts | 93° |
| 2026-04-28 10:17 | 41.26281 | 68.91885 | 14665 ft | 362 kts | 98° |
| 2026-04-28 10:18 | 41.25629 | 68.95049 | 14249 ft | 352 kts | 119° |
| 2026-04-28 10:18 | 41.24197 | 68.97615 | 13894 ft | 339 kts | 141° |
| 2026-04-28 10:18 | 41.22243 | 68.99205 | 13570 ft | 326 kts | 162° |
| 2026-04-28 10:18 | 41.20067 | 68.99865 | 13258 ft | 315 kts | 178° |
| 2026-04-28 10:19 | 41.17911 | 69.00023 | 12969 ft | 308 kts | 177° |
| 2026-04-28 10:19 | 41.15789 | 69.00485 | 12508 ft | 303 kts | 167° |
| 2026-04-28 10:19 | 41.13835 | 69.01386 | 12141 ft | 301 kts | 158° |
| 2026-04-28 10:19 | 41.11987 | 69.02701 | 11793 ft | 299 kts | 149° |
| 2026-04-28 10:20 | 41.10302 | 69.04340 | 11466 ft | 297 kts | 141° |
| 2026-04-28 10:20 | 41.08810 | 69.06213 | 11165 ft | 293 kts | 134° |
| 2026-04-28 10:20 | 41.07493 | 69.08285 | 10871 ft | 290 kts | 128° |
| 2026-04-28 10:20 | 41.06368 | 69.10480 | 10577 ft | 286 kts | 122° |
| 2026-04-28 10:21 | 41.05412 | 69.12805 | 10278 ft | 283 kts | 116° |
| 2026-04-28 10:21 | 41.04642 | 69.15185 | 9978 ft | 280 kts | 111° |
| 2026-04-28 10:21 | 41.04037 | 69.17661 | 9666 ft | 278 kts | 106° |
| 2026-04-28 10:21 | 41.03612 | 69.20134 | 9358 ft | 277 kts | 101° |
| 2026-04-28 10:22 | 41.03351 | 69.22659 | 9046 ft | 275 kts | 96° |
| 2026-04-28 10:22 | 41.03256 | 69.25234 | 8731 ft | 273 kts | 91° |
| 2026-04-28 10:22 | 41.03330 | 69.27752 | 8422 ft | 272 kts | 86° |
| 2026-04-28 10:22 | 41.03564 | 69.30248 | 8112 ft | 270 kts | 81° |
| 2026-04-28 10:23 | 41.03951 | 69.32669 | 7801 ft | 270 kts | 77° |
| 2026-04-28 10:23 | 41.04493 | 69.35059 | 7510 ft | 269 kts | 72° |
| 2026-04-28 10:23 | 41.05181 | 69.37373 | 7234 ft | 268 kts | 67° |
| 2026-04-28 10:23 | 41.06004 | 69.39580 | 6958 ft | 267 kts | 62° |
| 2026-04-28 10:24 | 41.06974 | 69.41711 | 6673 ft | 267 kts | 57° |
| 2026-04-28 10:24 | 41.08055 | 69.43690 | 6389 ft | 267 kts | 52° |
| 2026-04-28 10:24 | 41.09273 | 69.45567 | 6097 ft | 267 kts | 46° |
| 2026-04-28 10:24 | 41.10611 | 69.47308 | 5803 ft | 266 kts | 41° |
| 2026-04-28 10:25 | 41.12022 | 69.48862 | 5516 ft | 265 kts | 36° |
| 2026-04-28 10:25 | 41.13544 | 69.50272 | 5226 ft | 264 kts | 31° |
| 2026-04-28 10:25 | 41.15134 | 69.51497 | 4940 ft | 263 kts | 26° |
| 2026-04-28 10:25 | 41.16776 | 69.52502 | 4653 ft | 261 kts | 17° |
| 2026-04-28 10:26 | 41.18529 | 69.53046 | 4383 ft | 258 kts | 3° |
| 2026-04-28 10:26 | 41.20320 | 69.53020 | 4109 ft | 255 kts | 352° |
| 2026-04-28 10:26 | 41.22084 | 69.52734 | 3831 ft | 253 kts | 349° |
| 2026-04-28 10:26 | 41.23806 | 69.52413 | 3555 ft | 252 kts | 349° |
| 2026-04-28 10:27 | 41.25539 | 69.52092 | 3283 ft | 252 kts | 347° |
| 2026-04-28 10:27 | 41.27136 | 69.51224 | 3250 ft | 237 kts | 315° |
| 2026-04-28 10:27 | 41.27976 | 69.49486 | 3269 ft | 216 kts | 283° |
| 2026-04-28 10:27 | 41.28073 | 69.47590 | 3279 ft | 199 kts | 264° |
| 2026-04-28 10:28 | 41.27876 | 69.45850 | 3378 ft | 178 kts | 259° |
| 2026-04-28 10:28 | 41.27665 | 69.44329 | 3343 ft | 151 kts | 260° |
| 2026-04-28 10:28 | 41.27501 | 69.43041 | 3304 ft | 136 kts | 262° |
| 2026-04-28 10:29 | 41.27212 | 69.40520 | 2995 ft | 138 kts | 263° |
| 2026-04-28 10:29 | 41.27072 | 69.39265 | 2800 ft | 137 kts | 264° |
| 2026-04-28 10:29 | 41.26934 | 69.38008 | 2633 ft | 137 kts | 263° |
| 2026-04-28 10:29 | 41.26794 | 69.36749 | 2434 ft | 137 kts | 264° |
| 2026-04-28 10:30 | 41.26655 | 69.35484 | 2260 ft | 138 kts | 264° |
| 2026-04-28 10:30 | 41.26515 | 69.34214 | 2080 ft | 140 kts | 264° |
| 2026-04-28 10:30 | 41.26374 | 69.32946 | 1887 ft | 137 kts | 264° |
| 2026-04-28 10:30 | 41.26235 | 69.31683 | 1708 ft | 137 kts | 264° |
| 2026-04-28 10:31 | 41.26099 | 69.30429 | 1535 ft | 135 kts | 263° |
| 2026-04-28 10:31 | 41.25964 | 69.29213 | 1426 ft | 128 kts | 263° |
| 2026-04-28 10:31 | 41.25860 | 69.28178 | 1425 ft | 88 kts | 262° |
| 2026-04-28 10:31 | 41.25778 | 69.27605 | 1425 ft | 39 kts | 263° |
| 2026-04-28 10:32 | 41.25759 | 69.27334 | 1425 ft | 28 kts | 263° |
| 2026-04-28 10:32 | 41.25732 | 69.27066 | 1425 ft | 30 kts | 263° |
| 2026-04-28 10:32 | 41.25700 | 69.26778 | 1425 ft | 25 kts | 261° |
| 2026-04-28 10:32 | 41.25675 | 69.26552 | 1425 ft | 22 kts | 261° |
| 2026-04-28 10:33 | 41.25690 | 69.26404 | 1425 ft | 7 kts | 326° |
| 2026-04-28 10:33 | 41.25753 | 69.26421 | 1425 ft | 11 kts | 40° |
| 2026-04-28 10:33 | 41.25800 | 69.26529 | 1425 ft | 15 kts | 66° |
| 2026-04-28 10:33 | 41.25841 | 69.26653 | 1425 ft | 13 kts | 66° |
| 2026-04-28 10:34 | 41.25882 | 69.26771 | 1425 ft | 11 kts | 62° |
| 2026-04-28 10:34 | 41.25929 | 69.26829 | 1425 ft | 7 kts | 8° |
| 2026-04-28 10:34 | 41.25972 | 69.26811 | 1425 ft | 3 kts | 336° |
| 2026-04-28 10:34 | 41.25977 | 69.26807 | 1425 ft | 0 kts | 335° |